Leader, Saskatchewan

5:20 AM CST on October 24, 2014 (GMT -0600)
Kindersley | Change Station
CLOSE
Current Station
Airport
Location: Kindersley,
Elevation: 2277 ft
Nearby Weather Stations

Elev 2277 ft 51.52 °N, 109.17 °W | Updated 20 minutes ago

Mostly Cloudy
Mostly Cloudy
41 °F
Feels Like 36 °F
N
8
Wind Variable Wind from NW

Today is forecast to be nearly the same temperature as yesterday.

Today
High -- | Low -- °F
--% Chance of Precip.
Yesterday
High -- | Low -- °F
Precip. -- in
7:56 AM 6:07 PM
New Moon, 0% visible
Pressure 29.68 in
Visibility 15.0 miles
Clouds Mostly Cloudy 5000 ft
Mostly Cloudy 24000 ft
Windchill 36 °F
Dew Point 36 °F
Humidity 81%
Rainfall 0.00 in
Snow Depth Not available.
UV 0 out of 12
Pollen Not available.
Air Quality Not available.
Flu Activity Not available.
METAR CYKY 241100Z 31007KT 15SM BKN050 BKN240 05/02 A2965 RMK SC5CI2 PRESRR SLP050

More Conditions Fewer Conditions

Pressure 29.68 in
Visibility 15.0 miles
Clouds Mostly Cloudy 5000 ft
Mostly Cloudy 24000 ft
Windchill 36 °F
Dew Point 36 °F
Humidity 81%
Rainfall 0.00 in
Snow Depth Not available.
UV 0 out of 12
Pollen Not available.
Air Quality Not available.
Flu Activity Not available.
METAR CYKY 241100Z 31007KT 15SM BKN050 BKN240 05/02 A2965 RMK SC5CI2 PRESRR SLP050

More Conditions Fewer Conditions

10-Day Weather Forecast

Almanac

Astronomy

Oct. 24, 2014 Rise Set
Actual Time 7:56 AM CST 6:07 PM CST
Civil Twilight 7:22 AM CST 6:40 PM CST
Nautical Twilight 6:44 AM CST 7:19 PM CST
Astronomical Twilight 6:05 AM CST 7:57 PM CST
Moon 8:42 AM CST 6:43 PM CST
Length of Visible Light 11h 18m
Length of Day
10h 10m
Tomorrow will be 3m 38s shorter.
New Moon, 0% of the Moon is Illuminated
Today
New Moon
Oct 30
First Quarter
Nov 6
Full
Nov 14
Last Quarter
Nov 22
New

Yesterday's Extremes

Country Highs Country Lows

Community

WunderPhotos

Upload Photos

1,764,525 photos uploaded!

WunderBlogs® & News

Nearby

Snow Depth

Not available.

Earthquake Activity

City Distance Mag. Time & Date
No recent earthquake activity has been reported nearby.
Minimum magnitude displayed is 2.5.

Coastal Water Temperatures

Place Temperature
No Stations Reporting

Nearby Weather Stations